Portada
METAR-TAF:

METAR-TAF

Aeropuertos :

Aeropuerto Internacional de Bamako-Modibo Keïta

Bamako, Malí

latitud: 12-32N, longitud: 007-57W, altitud: 380 m

Observación

El informe se hizo hace 39 minutos, a las 06:00 UTC
Viento 16 kt del noreste
Temperatura 26°C
Humedad 14%
Presión 1014 hPa
Visibilidad 10 km o más
sin nubes por debajo de 1500 m y sin presencia de cumulonimbus.

METAR: GABS 240600Z 05016KT CAVOK 26/M04 Q1014 NOSIG

Hora: 06:39 (06:39 UTC)

Pronóstico

El informe se hizo hace 1 hora y 24 minutos, a las 05:15 UTC
Pronóstico válido del 24 a las 06 UTC al 25 a las 12 UTC
Viento 10 kt del noreste con ráfagas de 20 kt
Visibilidad 10 km o más
sin nubes por debajo de 1500 m y sin presencia de cumulonimbus.
Probabilidad 40% :
Temporalmente
del 24 a las 12 UTC al 24 a las 18 UTC
Visibilidad: 4000 m
calima

TAF: GABS 240515Z 2406/2512 05010G20KT CAVOK PROB40 TEMPO 2412/2418 4000 HZ

Observaciones y pronósticos meteorológicos de más de 4000 aeropuertos (mensajes METAR y TAF).

Los puntos amarillos y rojos representan las estaciones disponibles.

Ponga el ratón en el punto deseado para ver el nombre de la estación.

Haga clic para ver las observaciones y los pronósticos meteorológicos.

Para cambiar el mapa : haga clic en los botones verdes con una cruz de color negro para hacer un zoom, en el botón verde con un guión para alejar o en las flechas verdes para mapas adyacentes.


METAR-TAF: